Time;durP1;ratioP1;P1;durP2;ratioP2;P2;SDS_P1;SDS_P2;PMS_P1;PMS_P2;Temp;Humidity;BMP_temperature;BMP_pressure;BME280_temperature;BME280_humidity;BME280_pressure;Samples;Min_cycle;Max_cycle;Signal;HPM_P1;HPM_P2
2022/07/24 00:04:38;;;;;;;;;;;;;;;27.00;44.50;100274.00;20592924;28;97418;-77
2022/07/24 00:14:39;;;;;;;;;;;;;;;27.18;43.69;100273.88;20579386;28;97508;-79
2022/07/24 00:24:40;;;;;;;;;;;;;;;27.31;43.63;100278.75;20576585;28;97905;-80
2022/07/24 00:34:40;;;;;;;;;;;;;;;27.42;43.53;100281.13;20587129;28;98951;-82
2022/07/24 00:44:42;;;;;;;;;;;;;;;27.45;43.87;100288.81;20583890;28;98428;-82
2022/07/24 00:54:45;;;;;;;;;;;;;;;27.50;42.86;100290.13;20597293;28;98331;-81
2022/07/24 01:04:46;;;;;;;;;;;;;;;27.36;43.62;100297.72;21585227;22;98878;-73
2022/07/24 01:14:47;;;;;;;;;;;;;;;27.32;43.45;100285.75;20796948;27;97006;-73
2022/07/24 01:24:48;;;;;;;;;;;;;;;27.37;43.49;100286.09;20782129;27;100969;-72
2022/07/24 01:34:48;;;;;;;;;;;;;;;27.29;43.58;100291.38;20783492;27;99104;-72
2022/07/24 01:44:48;;;;;;;;;;;;;;;27.25;43.71;100288.19;20800399;27;98645;-72
2022/07/24 01:54:50;;;;;;;;;;;;;;;27.17;43.90;100270.41;20801535;27;99307;-73
2022/07/24 02:04:51;;;;;;;;;;;;;;;27.26;43.17;100263.28;20783929;27;97845;-73
2022/07/24 02:14:51;;;;;;;;;;;;;;;27.26;43.03;100297.03;20707971;28;97861;-73
2022/07/24 02:24:52;;;;;;;;;;;;;;;27.12;43.32;100290.47;20700430;28;97900;-73
2022/07/24 02:34:52;;;;;;;;;;;;;;;27.23;43.44;100274.22;20698159;28;98423;-73
2022/07/24 02:44:53;;;;;;;;;;;;;;;27.13;42.80;100274.38;20689906;28;98538;-73
2022/07/24 02:54:54;;;;;;;;;;;;;;;27.04;42.98;100270.03;20693214;28;98858;-71
2022/07/24 03:04:54;;;;;;;;;;;;;;;27.10;42.85;100239.31;20700286;28;97846;-72
2022/07/24 03:14:54;;;;;;;;;;;;;;;26.96;42.53;100260.19;20690498;28;100840;-72
2022/07/24 03:24:55;;;;;;;;;;;;;;;27.00;42.75;100248.25;20693896;28;97794;-73
2022/07/24 03:34:55;;;;;;;;;;;;;;;26.94;43.08;100248.06;20697382;28;98897;-73
2022/07/24 03:44:55;;;;;;;;;;;;;;;26.93;42.78;100241.09;20678072;28;98892;-73
2022/07/24 03:54:56;;;;;;;;;;;;;;;26.91;43.37;100245.75;20680602;28;98907;-72
2022/07/24 04:04:56;;;;;;;;;;;;;;;26.88;43.43;100236.28;20650728;28;99321;-72
2022/07/24 04:14:56;;;;;;;;;;;;;;;26.77;43.33;100240.03;20710418;28;97097;-73
2022/07/24 04:24:57;;;;;;;;;;;;;;;26.74;43.45;100276.69;20715468;28;98508;-73
2022/07/24 04:34:57;;;;;;;;;;;;;;;26.76;43.72;100283.53;20718309;28;97096;-73
2022/07/24 04:44:57;;;;;;;;;;;;;;;26.80;44.35;100289.34;20724509;28;98821;-72
2022/07/24 04:54:58;;;;;;;;;;;;;;;26.78;44.25;100296.66;20725092;28;98814;-72
2022/07/24 05:04:58;;;;;;;;;;;;;;;26.77;44.41;100319.72;20722675;28;97676;-74
2022/07/24 05:14:58;;;;;;;;;;;;;;;26.71;45.23;100338.94;20720543;28;97837;-74
2022/07/24 05:24:59;;;;;;;;;;;;;;;26.73;45.52;100341.41;20683318;28;99226;-74
2022/07/24 05:34:59;;;;;;;;;;;;;;;26.74;45.35;100349.22;20703326;28;99555;-74
2022/07/24 05:44:59;;;;;;;;;;;;;;;26.76;45.88;100365.06;20708341;28;99792;-74
2022/07/24 05:54:59;;;;;;;;;;;;;;;26.85;45.93;100372.06;20720213;28;101386;-74
2022/07/24 06:05:00;;;;;;;;;;;;;;;26.89;45.67;100369.94;20701944;28;99502;-75
2022/07/24 06:15:00;;;;;;;;;;;;;;;26.96;45.77;100369.13;20682723;28;98489;-74
2022/07/24 06:25:00;;;;;;;;;;;;;;;26.99;46.18;100378.63;20711318;28;97766;-74
2022/07/24 06:35:01;;;;;;;;;;;;;;;27.09;45.56;100375.88;20702816;28;98434;-72
2022/07/24 06:45:01;;;;;;;;;;;;;;;27.16;45.19;100388.34;20709324;27;99639;-71
2022/07/24 06:55:03;;;;;;;;;;;;;;;27.23;44.59;100383.22;20695033;28;98021;-71
2022/07/24 07:05:04;;;;;;;;;;;;;;;27.28;43.97;100396.03;20684313;28;98526;-78
2022/07/24 07:15:05;;;;;;;;;;;;;;;27.34;44.08;100395.41;20658030;28;104090;-74
2022/07/24 07:25:06;;;;;;;;;;;;;;;27.46;44.10;100394.16;20694229;28;97527;-73
2022/07/24 07:35:08;;;;;;;;;;;;;;;27.62;42.19;100396.06;20717211;28;98996;-73
2022/07/24 07:45:08;;;;;;;;;;;;;;;27.73;40.38;100410.03;20711600;28;97967;-72
2022/07/24 07:55:08;;;;;;;;;;;;;;;27.91;39.67;100407.25;20727764;28;96973;-71
2022/07/24 08:05:10;;;;;;;;;;;;;;;27.95;39.86;100393.47;20746444;28;101998;-76
2022/07/24 08:15:10;;;;;;;;;;;;;;;28.03;40.28;100392.66;20693666;28;98306;-68
2022/07/24 08:25:11;;;;;;;;;;;;;;;28.08;41.46;100397.50;20725182;28;97790;-75
2022/07/24 08:35:16;;;;;;;;;;;;;;;28.11;41.46;100407.81;20738083;28;99775;-75
2022/07/24 08:45:16;;;;;;;;;;;;;;;28.14;41.70;100401.31;20734615;28;98315;-75
2022/07/24 08:55:17;;;;;;;;;;;;;;;28.18;41.35;100414.16;20739558;28;100772;-74
2022/07/24 09:05:17;;;;;;;;;;;;;;;28.21;41.58;100426.28;20733562;28;97796;-75
2022/07/24 09:15:26;;;;;;;;;;;;;;;28.24;41.74;100423.31;20740632;28;97839;-75
2022/07/24 09:25:27;;;;;;;;;;;;;;;28.27;41.82;100422.97;20736925;28;97863;-75
2022/07/24 09:35:33;;;;;;;;;;;;;;;28.31;41.77;100424.31;20731336;28;100743;-75
2022/07/24 09:45:50;;;;;;;;;;;;;;;28.34;42.00;100429.31;20731078;28;101283;-74
2022/07/24 09:55:57;;;;;;;;;;;;;;;28.38;42.46;100419.16;20730634;28;98780;-75
2022/07/24 10:05:59;;;;;;;;;;;;;;;28.42;42.37;100420.50;20725480;28;97832;-76
2022/07/24 10:16:00;;;;;;;;;;;;;;;28.47;42.49;100428.00;20728734;28;101060;-76
2022/07/24 10:26:07;;;;;;;;;;;;;;;28.51;43.30;100424.81;20715626;28;100943;-75
2022/07/24 10:36:15;;;;;;;;;;;;;;;28.56;43.41;100426.97;20686837;28;98787;-77
2022/07/24 10:46:15;;;;;;;;;;;;;;;28.62;43.29;100434.31;20687293;28;97873;-75
2022/07/24 10:56:28;;;;;;;;;;;;;;;28.72;44.23;100432.34;20681494;28;101381;-76
2022/07/24 11:06:39;;;;;;;;;;;;;;;28.78;45.04;100425.50;20668726;28;99022;-79
2022/07/24 11:16:39;;;;;;;;;;;;;;;28.85;45.45;100415.81;20675940;28;97842;-79
2022/07/24 11:26:43;;;;;;;;;;;;;;;28.90;45.55;100410.00;20700689;28;98275;-79
2022/07/24 11:36:44;;;;;;;;;;;;;;;28.94;45.05;100405.97;20710867;28;98331;-79
2022/07/24 11:46:44;;;;;;;;;;;;;;;28.98;44.74;100393.13;20729965;28;98999;-79
2022/07/24 11:56:45;;;;;;;;;;;;;;;29.05;44.60;100383.47;20710217;28;98576;-79
2022/07/24 12:06:45;;;;;;;;;;;;;;;29.11;44.50;100380.09;20680168;28;97941;-79
2022/07/24 12:16:55;;;;;;;;;;;;;;;29.17;44.41;100384.75;20706464;28;97411;-79
2022/07/24 12:26:56;;;;;;;;;;;;;;;29.24;44.27;100366.25;20723874;28;97814;-80
2022/07/24 12:36:56;;;;;;;;;;;;;;;29.28;44.37;100364.88;20716945;28;105080;-79
2022/07/24 12:46:57;;;;;;;;;;;;;;;29.34;45.12;100360.72;20719942;28;101433;-79
2022/07/24 12:56:59;;;;;;;;;;;;;;;29.42;44.91;100347.34;20725735;28;97698;-78
2022/07/24 13:07:00;;;;;;;;;;;;;;;29.49;45.23;100347.47;20734569;28;98894;-77
2022/07/24 13:17:02;;;;;;;;;;;;;;;29.55;45.20;100341.44;20715202;28;97825;-79
2022/07/24 13:27:03;;;;;;;;;;;;;;;29.62;45.03;100328.22;20745252;28;97708;-78
2022/07/24 13:37:05;;;;;;;;;;;;;;;29.67;45.06;100305.31;20731468;28;97777;-79
2022/07/24 13:47:06;;;;;;;;;;;;;;;29.74;45.07;100299.31;20728834;28;97065;-79
2022/07/24 13:57:07;;;;;;;;;;;;;;;29.80;45.06;100296.75;20743227;28;97635;-76
2022/07/24 14:07:07;;;;;;;;;;;;;;;29.89;34.19;100291.34;20715879;28;101914;-78
2022/07/24 14:17:09;;;;;;;;;;;;;;;30.19;29.98;100274.41;20702134;28;101290;-79
2022/07/24 14:27:09;;;;;;;;;;;;;;;30.30;30.41;100272.31;20703723;28;98553;-80
2022/07/24 14:37:09;;;;;;;;;;;;;;;30.44;28.42;100273.34;20687515;28;101464;-79
2022/07/24 14:47:09;;;;;;;;;;;;;;;30.42;27.33;100251.31;20682859;28;99251;-77
2022/07/24 14:57:10;;;;;;;;;;;;;;;30.58;28.66;100253.84;20694320;28;98576;-77
2022/07/24 15:07:10;;;;;;;;;;;;;;;30.67;26.70;100246.53;20694598;28;98636;-77
2022/07/24 15:17:12;;;;;;;;;;;;;;;30.81;26.33;100239.53;20726910;28;98051;-75
2022/07/24 15:27:12;;;;;;;;;;;;;;;30.96;25.41;100226.13;20715979;28;97367;-76
2022/07/24 15:37:12;;;;;;;;;;;;;;;31.26;25.11;100228.75;20693772;28;97222;-78
2022/07/24 15:47:13;;;;;;;;;;;;;;;32.03;24.23;100229.88;20719190;28;101846;-78
2022/07/24 15:57:13;;;;;;;;;;;;;;;32.83;23.31;100226.81;20702656;28;98032;-76
2022/07/24 16:07:13;;;;;;;;;;;;;;;33.27;22.31;100205.06;20724781;28;97869;-76
2022/07/24 16:17:14;;;;;;;;;;;;;;;32.97;22.80;100214.31;20705772;28;100971;-75
2022/07/24 16:27:14;;;;;;;;;;;;;;;32.35;22.16;100213.41;20697876;28;98067;-80
2022/07/24 16:37:14;;;;;;;;;;;;;;;31.92;23.03;100217.00;20697861;28;98825;-72
2022/07/24 16:47:15;;;;;;;;;;;;;;;31.60;22.76;100212.00;20719923;28;98678;-76
2022/07/24 16:57:15;;;;;;;;;;;;;;;31.40;22.23;100209.13;20711642;28;98072;-73
2022/07/24 17:07:17;;;;;;;;;;;;;;;31.25;24.26;100211.03;20708058;28;97691;-70
2022/07/24 17:17:19;;;;;;;;;;;;;;;31.05;23.23;100210.81;20708156;28;98238;-71
2022/07/24 17:27:19;;;;;;;;;;;;;;;30.93;24.84;100216.66;20681100;28;101088;-72
2022/07/24 17:37:20;;;;;;;;;;;;;;;30.78;24.63;100222.00;20706951;28;100289;-71
2022/07/24 17:47:21;;;;;;;;;;;;;;;30.62;23.86;100219.56;20717284;28;97955;-72
2022/07/24 17:57:21;;;;;;;;;;;;;;;30.46;23.30;100223.22;20717643;28;98420;-71
2022/07/24 18:07:21;;;;;;;;;;;;;;;30.36;24.60;100226.19;20722350;28;98024;-72
2022/07/24 18:17:22;;;;;;;;;;;;;;;30.29;24.99;100246.63;20731618;28;96952;-74
2022/07/24 18:27:22;;;;;;;;;;;;;;;30.11;24.48;100252.28;20719412;28;97870;-77
2022/07/24 18:37:22;;;;;;;;;;;;;;;29.96;24.82;100263.78;20657571;28;99153;-77
2022/07/24 18:47:23;;;;;;;;;;;;;;;29.76;24.61;100279.44;20673755;28;100381;-77
2022/07/24 18:57:24;;;;;;;;;;;;;;;29.49;24.93;100289.63;20676236;28;101047;-74
2022/07/24 19:07:24;;;;;;;;;;;;;;;29.37;25.12;100315.03;20699884;28;101640;-73
2022/07/24 19:17:24;;;;;;;;;;;;;;;29.26;25.54;100318.91;20682607;28;97967;-75
2022/07/24 19:27:25;;;;;;;;;;;;;;;29.13;25.69;100330.13;20683861;28;99004;-75
2022/07/24 19:37:25;;;;;;;;;;;;;;;28.88;26.09;100334.69;20703413;28;98245;-75
2022/07/24 19:47:25;;;;;;;;;;;;;;;28.78;26.00;100339.41;20708763;28;100547;-74
2022/07/24 19:57:26;;;;;;;;;;;;;;;28.57;26.38;100356.72;20727795;28;97833;-74
2022/07/24 20:07:26;;;;;;;;;;;;;;;28.56;26.80;100363.91;20725560;28;98025;-73
2022/07/24 20:17:26;;;;;;;;;;;;;;;28.45;27.30;100372.22;20703450;28;98575;-74
2022/07/24 20:27:27;;;;;;;;;;;;;;;28.42;27.32;100377.88;20700967;28;98932;-74
2022/07/24 20:37:32;;;;;;;;;;;;;;;28.35;27.28;100395.53;20729841;28;97526;-76
2022/07/24 20:47:32;;;;;;;;;;;;;;;28.11;27.85;100406.00;20714394;28;100016;-75
2022/07/24 20:57:33;;;;;;;;;;;;;;;27.99;28.38;100419.75;20683504;28;98650;-75
2022/07/24 21:07:33;;;;;;;;;;;;;;;27.82;28.59;100424.19;20729600;28;97932;-74
2022/07/24 21:17:33;;;;;;;;;;;;;;;27.62;28.72;100427.97;20726745;28;97531;-74
2022/07/24 21:27:34;;;;;;;;;;;;;;;27.46;29.46;100428.72;20742589;28;97780;-75
2022/07/24 21:37:34;;;;;;;;;;;;;;;27.42;30.28;100439.84;20734250;28;98785;-74
2022/07/24 21:47:35;;;;;;;;;;;;;;;27.25;30.97;100450.38;20664231;28;97623;-74
2022/07/24 21:57:35;;;;;;;;;;;;;;;27.30;31.41;100453.38;20704420;28;98197;-77
2022/07/24 22:07:37;;;;;;;;;;;;;;;27.50;31.98;100466.47;20669817;28;98468;-77
2022/07/24 22:17:37;;;;;;;;;;;;;;;27.56;33.07;100470.31;20696500;28;98211;-77
2022/07/24 22:27:38;;;;;;;;;;;;;;;27.59;33.30;100467.38;20673660;28;100842;-76
2022/07/24 22:37:39;;;;;;;;;;;;;;;27.52;34.16;100469.81;20681067;28;98609;-76
2022/07/24 22:47:39;;;;;;;;;;;;;;;27.53;34.33;100474.13;20678480;28;99889;-76
2022/07/24 22:57:44;;;;;;;;;;;;;;;27.44;35.08;100462.63;20682665;28;98884;-76
2022/07/24 23:07:44;;;;;;;;;;;;;;;27.35;35.40;100468.84;20668380;28;99984;-76
2022/07/24 23:17:44;;;;;;;;;;;;;;;27.31;35.41;100459.53;20670353;28;99674;-75
2022/07/24 23:27:45;;;;;;;;;;;;;;;27.20;35.48;100484.56;20669053;28;101536;-77
2022/07/24 23:37:45;;;;;;;;;;;;;;;27.13;35.37;100463.06;20666558;28;98061;-77
2022/07/24 23:47:46;;;;;;;;;;;;;;;27.06;35.39;100461.22;20667038;28;98595;-76
2022/07/24 23:57:46;;;;;;;;;;;;;;;26.91;35.62;100461.78;20667814;28;101472;-75
